sensor_id;sensor_type;location;lat;lon;timestamp;temperature;humidity
2447;DHT22;26430;48.818;9.244;2023-11-19T00:00:33;7.80;99.90
2447;DHT22;26430;48.818;9.244;2023-11-19T00:02:59;7.70;99.90
2447;DHT22;26430;48.818;9.244;2023-11-19T00:05:24;7.80;99.90
2447;DHT22;26430;48.818;9.244;2023-11-19T00:07:50;7.80;99.90
2447;DHT22;26430;48.818;9.244;2023-11-19T00:10:16;7.90;99.90
2447;DHT22;26430;48.818;9.244;2023-11-19T00:12:47;7.90;99.90
2447;DHT22;26430;48.818;9.244;2023-11-19T00:15:13;7.90;99.90
2447;DHT22;26430;48.818;9.244;2023-11-19T00:17:43;7.90;99.90
2447;DHT22;26430;48.818;9.244;2023-11-19T00:20:14;7.90;99.90
2447;DHT22;26430;48.818;9.244;2023-11-19T00:22:40;7.90;99.90
2447;DHT22;26430;48.818;9.244;2023-11-19T00:25:07;7.90;99.90
2447;DHT22;26430;48.818;9.244;2023-11-19T00:27:33;7.90;99.90
2447;DHT22;26430;48.818;9.244;2023-11-19T00:29:58;8.00;99.90
2447;DHT22;26430;48.818;9.244;2023-11-19T00:32:24;8.00;99.90
2447;DHT22;26430;48.818;9.244;2023-11-19T00:34:49;8.00;99.90
2447;DHT22;26430;48.818;9.244;2023-11-19T00:37:15;8.00;99.90
2447;DHT22;26430;48.818;9.244;2023-11-19T00:39:42;8.10;99.90
2447;DHT22;26430;48.818;9.244;2023-11-19T00:42:07;8.20;99.90
2447;DHT22;26430;48.818;9.244;2023-11-19T00:44:33;8.20;99.90
2447;DHT22;26430;48.818;9.244;2023-11-19T00:46:59;8.20;99.90
2447;DHT22;26430;48.818;9.244;2023-11-19T00:49:25;8.40;99.90
2447;DHT22;26430;48.818;9.244;2023-11-19T00:51:51;8.40;99.90
2447;DHT22;26430;48.818;9.244;2023-11-19T00:54:16;8.50;99.90
2447;DHT22;26430;48.818;9.244;2023-11-19T00:56:42;8.50;99.90
2447;DHT22;26430;48.818;9.244;2023-11-19T00:59:07;8.50;99.90
2447;DHT22;26430;48.818;9.244;2023-11-19T01:01:33;8.50;99.90
2447;DHT22;26430;48.818;9.244;2023-11-19T01:03:59;8.50;99.90
2447;DHT22;26430;48.818;9.244;2023-11-19T01:06:31;8.50;99.90
2447;DHT22;26430;48.818;9.244;2023-11-19T01:08:57;8.60;99.90
2447;DHT22;26430;48.818;9.244;2023-11-19T01:11:24;8.60;99.90
2447;DHT22;26430;48.818;9.244;2023-11-19T01:13:50;8.70;99.90
2447;DHT22;26430;48.818;9.244;2023-11-19T01:16:16;8.70;99.90
2447;DHT22;26430;48.818;9.244;2023-11-19T01:18:42;8.70;99.90
2447;DHT22;26430;48.818;9.244;2023-11-19T01:21:08;8.70;99.90
2447;DHT22;26430;48.818;9.244;2023-11-19T01:23:34;8.70;99.90
2447;DHT22;26430;48.818;9.244;2023-11-19T01:26:00;8.70;99.90
2447;DHT22;26430;48.818;9.244;2023-11-19T01:28:25;8.80;99.90
2447;DHT22;26430;48.818;9.244;2023-11-19T01:30:51;8.80;99.90
2447;DHT22;26430;48.818;9.244;2023-11-19T01:33:17;8.70;99.90
2447;DHT22;26430;48.818;9.244;2023-11-19T01:35:42;8.80;99.90
2447;DHT22;26430;48.818;9.244;2023-11-19T01:38:08;8.80;99.90
2447;DHT22;26430;48.818;9.244;2023-11-19T01:40:39;8.80;99.90
2447;DHT22;26430;48.818;9.244;2023-11-19T01:43:04;8.90;99.90
2447;DHT22;26430;48.818;9.244;2023-11-19T01:45:31;8.90;99.90
2447;DHT22;26430;48.818;9.244;2023-11-19T01:47:57;8.90;99.90
2447;DHT22;26430;48.818;9.244;2023-11-19T01:50:24;9.00;99.90
2447;DHT22;26430;48.818;9.244;2023-11-19T01:52:52;9.00;99.90
2447;DHT22;26430;48.818;9.244;2023-11-19T01:55:22;9.00;99.90
2447;DHT22;26430;48.818;9.244;2023-11-19T01:57:49;9.00;99.90
2447;DHT22;26430;48.818;9.244;2023-11-19T02:00:16;9.10;99.90
2447;DHT22;26430;48.818;9.244;2023-11-19T02:02:45;9.10;99.90
2447;DHT22;26430;48.818;9.244;2023-11-19T02:05:12;9.10;99.90
2447;DHT22;26430;48.818;9.244;2023-11-19T02:07:38;9.10;99.90
2447;DHT22;26430;48.818;9.244;2023-11-19T02:10:04;9.10;99.90
2447;DHT22;26430;48.818;9.244;2023-11-19T02:12:31;9.00;99.90
2447;DHT22;26430;48.818;9.244;2023-11-19T02:15:01;9.10;99.90
2447;DHT22;26430;48.818;9.244;2023-11-19T02:17:28;9.10;99.90
2447;DHT22;26430;48.818;9.244;2023-11-19T02:19:56;9.10;99.90
2447;DHT22;26430;48.818;9.244;2023-11-19T02:22:22;9.10;99.90
2447;DHT22;26430;48.818;9.244;2023-11-19T02:24:51;9.10;99.90
2447;DHT22;26430;48.818;9.244;2023-11-19T02:27:41;9.20;99.90
2447;DHT22;26430;48.818;9.244;2023-11-19T02:30:07;9.30;99.90
2447;DHT22;26430;48.818;9.244;2023-11-19T02:32:34;9.30;99.90
2447;DHT22;26430;48.818;9.244;2023-11-19T02:35:01;9.30;99.90
2447;DHT22;26430;48.818;9.244;2023-11-19T02:37:27;9.30;99.90
2447;DHT22;26430;48.818;9.244;2023-11-19T02:39:53;9.30;99.90
2447;DHT22;26430;48.818;9.244;2023-11-19T02:42:19;9.30;99.90
2447;DHT22;26430;48.818;9.244;2023-11-19T02:44:45;9.30;99.90
2447;DHT22;26430;48.818;9.244;2023-11-19T02:47:11;9.40;99.90
2447;DHT22;26430;48.818;9.244;2023-11-19T02:49:37;9.50;99.90
2447;DHT22;26430;48.818;9.244;2023-11-19T02:52:03;9.50;99.90
2447;DHT22;26430;48.818;9.244;2023-11-19T02:54:31;9.40;99.90
2447;DHT22;26430;48.818;9.244;2023-11-19T02:57:00;9.40;99.90
2447;DHT22;26430;48.818;9.244;2023-11-19T02:59:27;9.50;99.90
2447;DHT22;26430;48.818;9.244;2023-11-19T03:01:53;9.40;99.90
2447;DHT22;26430;48.818;9.244;2023-11-19T03:04:19;9.40;99.90
2447;DHT22;26430;48.818;9.244;2023-11-19T03:06:48;9.40;99.90
2447;DHT22;26430;48.818;9.244;2023-11-19T03:09:14;9.40;99.90
2447;DHT22;26430;48.818;9.244;2023-11-19T03:11:40;9.40;99.90
2447;DHT22;26430;48.818;9.244;2023-11-19T03:14:05;9.50;99.90
2447;DHT22;26430;48.818;9.244;2023-11-19T03:16:31;9.50;99.90
2447;DHT22;26430;48.818;9.244;2023-11-19T03:18:57;9.50;99.90
2447;DHT22;26430;48.818;9.244;2023-11-19T03:21:29;9.60;99.90
2447;DHT22;26430;48.818;9.244;2023-11-19T03:23:55;9.70;99.90
2447;DHT22;26430;48.818;9.244;2023-11-19T03:26:21;9.60;99.90
2447;DHT22;26430;48.818;9.244;2023-11-19T03:28:47;9.60;99.90
2447;DHT22;26430;48.818;9.244;2023-11-19T03:31:13;9.60;99.90
2447;DHT22;26430;48.818;9.244;2023-11-19T03:33:39;9.60;99.90
2447;DHT22;26430;48.818;9.244;2023-11-19T03:36:05;9.60;99.90
2447;DHT22;26430;48.818;9.244;2023-11-19T03:38:31;9.50;99.90
2447;DHT22;26430;48.818;9.244;2023-11-19T03:40:57;9.60;99.90
2447;DHT22;26430;48.818;9.244;2023-11-19T03:43:22;9.60;99.90
2447;DHT22;26430;48.818;9.244;2023-11-19T03:45:48;9.60;99.90
2447;DHT22;26430;48.818;9.244;2023-11-19T03:48:13;9.60;99.90
2447;DHT22;26430;48.818;9.244;2023-11-19T03:50:41;9.60;99.90
2447;DHT22;26430;48.818;9.244;2023-11-19T03:53:07;9.70;99.90
2447;DHT22;26430;48.818;9.244;2023-11-19T03:55:33;9.70;99.90
2447;DHT22;26430;48.818;9.244;2023-11-19T03:57:58;9.80;99.90
2447;DHT22;26430;48.818;9.244;2023-11-19T04:00:24;9.80;99.90
2447;DHT22;26430;48.818;9.244;2023-11-19T04:02:49;9.70;99.90
2447;DHT22;26430;48.818;9.244;2023-11-19T04:05:15;9.80;99.90
2447;DHT22;26430;48.818;9.244;2023-11-19T04:07:40;9.80;99.90
2447;DHT22;26430;48.818;9.244;2023-11-19T04:10:06;9.80;99.90
2447;DHT22;26430;48.818;9.244;2023-11-19T04:12:32;9.80;99.90
2447;DHT22;26430;48.818;9.244;2023-11-19T04:14:58;9.80;99.90
2447;DHT22;26430;48.818;9.244;2023-11-19T04:17:23;9.80;99.90
2447;DHT22;26430;48.818;9.244;2023-11-19T04:19:49;9.80;99.90
2447;DHT22;26430;48.818;9.244;2023-11-19T04:22:14;9.90;99.90
2447;DHT22;26430;48.818;9.244;2023-11-19T04:24:40;9.90;99.90
2447;DHT22;26430;48.818;9.244;2023-11-19T04:27:06;9.90;99.90
2447;DHT22;26430;48.818;9.244;2023-11-19T04:29:31;10.00;99.90
2447;DHT22;26430;48.818;9.244;2023-11-19T04:31:57;10.00;99.90
2447;DHT22;26430;48.818;9.244;2023-11-19T04:34:23;10.10;99.90
2447;DHT22;26430;48.818;9.244;2023-11-19T04:36:49;10.20;99.90
2447;DHT22;26430;48.818;9.244;2023-11-19T04:39:14;10.20;99.90
2447;DHT22;26430;48.818;9.244;2023-11-19T04:44:14;10.30;99.90
2447;DHT22;26430;48.818;9.244;2023-11-19T04:46:41;10.30;99.90
2447;DHT22;26430;48.818;9.244;2023-11-19T04:49:08;10.40;99.90
2447;DHT22;26430;48.818;9.244;2023-11-19T04:51:44;10.40;99.90
2447;DHT22;26430;48.818;9.244;2023-11-19T04:54:10;10.40;99.90
2447;DHT22;26430;48.818;9.244;2023-11-19T04:56:36;10.50;99.90
2447;DHT22;26430;48.818;9.244;2023-11-19T04:59:06;10.50;99.90
2447;DHT22;26430;48.818;9.244;2023-11-19T05:01:32;10.60;99.90
2447;DHT22;26430;48.818;9.244;2023-11-19T05:03:58;10.70;99.90
2447;DHT22;26430;48.818;9.244;2023-11-19T05:06:26;10.70;99.90
2447;DHT22;26430;48.818;9.244;2023-11-19T05:08:52;10.70;99.90
2447;DHT22;26430;48.818;9.244;2023-11-19T05:11:19;10.80;99.90
2447;DHT22;26430;48.818;9.244;2023-11-19T05:13:45;11.00;99.90
2447;DHT22;26430;48.818;9.244;2023-11-19T05:16:11;11.00;99.90
2447;DHT22;26430;48.818;9.244;2023-11-19T05:18:39;10.90;99.90
2447;DHT22;26430;48.818;9.244;2023-11-19T05:21:05;10.90;99.90
2447;DHT22;26430;48.818;9.244;2023-11-19T05:23:31;10.90;99.90
2447;DHT22;26430;48.818;9.244;2023-11-19T05:25:56;11.00;99.90
2447;DHT22;26430;48.818;9.244;2023-11-19T05:28:23;11.00;99.90
2447;DHT22;26430;48.818;9.244;2023-11-19T05:30:49;11.00;99.90
2447;DHT22;26430;48.818;9.244;2023-11-19T05:33:15;11.00;99.90
2447;DHT22;26430;48.818;9.244;2023-11-19T05:35:41;11.00;99.90
2447;DHT22;26430;48.818;9.244;2023-11-19T05:38:06;11.10;99.90
2447;DHT22;26430;48.818;9.244;2023-11-19T05:40:32;11.00;99.90
2447;DHT22;26430;48.818;9.244;2023-11-19T05:42:58;11.10;99.90
2447;DHT22;26430;48.818;9.244;2023-11-19T05:45:23;11.10;99.90
2447;DHT22;26430;48.818;9.244;2023-11-19T05:47:49;11.10;99.90
2447;DHT22;26430;48.818;9.244;2023-11-19T05:50:14;11.10;99.90
2447;DHT22;26430;48.818;9.244;2023-11-19T05:52:40;11.10;99.90
2447;DHT22;26430;48.818;9.244;2023-11-19T05:55:06;11.10;99.90
2447;DHT22;26430;48.818;9.244;2023-11-19T05:57:38;11.10;99.90
2447;DHT22;26430;48.818;9.244;2023-11-19T06:00:05;11.20;99.90
2447;DHT22;26430;48.818;9.244;2023-11-19T06:02:33;11.10;99.90
2447;DHT22;26430;48.818;9.244;2023-11-19T06:04:58;11.30;99.90
2447;DHT22;26430;48.818;9.244;2023-11-19T06:07:24;11.20;99.90
2447;DHT22;26430;48.818;9.244;2023-11-19T06:09:50;11.20;99.90
2447;DHT22;26430;48.818;9.244;2023-11-19T06:12:15;11.30;99.90
2447;DHT22;26430;48.818;9.244;2023-11-19T06:14:41;11.30;99.90
2447;DHT22;26430;48.818;9.244;2023-11-19T06:17:07;11.30;99.90
2447;DHT22;26430;48.818;9.244;2023-11-19T06:19:33;11.40;99.90
2447;DHT22;26430;48.818;9.244;2023-11-19T06:21:59;11.40;99.90
2447;DHT22;26430;48.818;9.244;2023-11-19T06:24:25;11.50;99.90
2447;DHT22;26430;48.818;9.244;2023-11-19T06:26:50;11.40;99.90
2447;DHT22;26430;48.818;9.244;2023-11-19T06:29:16;11.40;99.90
2447;DHT22;26430;48.818;9.244;2023-11-19T06:31:45;11.30;99.90
2447;DHT22;26430;48.818;9.244;2023-11-19T06:34:11;11.30;99.90
2447;DHT22;26430;48.818;9.244;2023-11-19T06:36:36;11.30;99.90
2447;DHT22;26430;48.818;9.244;2023-11-19T06:39:03;11.40;99.90
2447;DHT22;26430;48.818;9.244;2023-11-19T06:41:29;11.40;99.90
2447;DHT22;26430;48.818;9.244;2023-11-19T06:43:55;11.40;99.90
2447;DHT22;26430;48.818;9.244;2023-11-19T06:46:20;11.50;99.90
2447;DHT22;26430;48.818;9.244;2023-11-19T06:48:46;11.50;99.90
2447;DHT22;26430;48.818;9.244;2023-11-19T06:51:12;11.50;99.90
2447;DHT22;26430;48.818;9.244;2023-11-19T06:53:38;11.50;99.90
2447;DHT22;26430;48.818;9.244;2023-11-19T06:56:05;11.50;99.90
2447;DHT22;26430;48.818;9.244;2023-11-19T06:58:36;11.50;99.90
2447;DHT22;26430;48.818;9.244;2023-11-19T07:01:01;11.50;99.90
2447;DHT22;26430;48.818;9.244;2023-11-19T07:03:27;11.50;99.90
2447;DHT22;26430;48.818;9.244;2023-11-19T07:05:52;11.40;99.90
2447;DHT22;26430;48.818;9.244;2023-11-19T07:08:18;11.40;99.90
2447;DHT22;26430;48.818;9.244;2023-11-19T07:10:43;11.50;99.90
2447;DHT22;26430;48.818;9.244;2023-11-19T07:13:09;11.50;99.90
2447;DHT22;26430;48.818;9.244;2023-11-19T07:15:35;11.50;99.90
2447;DHT22;26430;48.818;9.244;2023-11-19T07:18:00;11.60;99.90
2447;DHT22;26430;48.818;9.244;2023-11-19T07:20:26;11.60;99.90
2447;DHT22;26430;48.818;9.244;2023-11-19T07:22:53;11.60;99.90
2447;DHT22;26430;48.818;9.244;2023-11-19T07:25:20;11.60;99.90
2447;DHT22;26430;48.818;9.244;2023-11-19T07:27:45;11.60;99.90
2447;DHT22;26430;48.818;9.244;2023-11-19T07:30:13;11.70;99.90
2447;DHT22;26430;48.818;9.244;2023-11-19T07:32:39;11.70;99.90
2447;DHT22;26430;48.818;9.244;2023-11-19T07:35:04;11.80;99.90
2447;DHT22;26430;48.818;9.244;2023-11-19T07:37:31;11.80;99.90
2447;DHT22;26430;48.818;9.244;2023-11-19T07:39:56;11.80;99.90
2447;DHT22;26430;48.818;9.244;2023-11-19T07:42:22;11.80;99.90
2447;DHT22;26430;48.818;9.244;2023-11-19T07:44:49;11.80;99.90
2447;DHT22;26430;48.818;9.244;2023-11-19T07:47:14;11.80;99.90
2447;DHT22;26430;48.818;9.244;2023-11-19T07:49:40;11.70;99.90
2447;DHT22;26430;48.818;9.244;2023-11-19T07:52:05;11.70;99.90
2447;DHT22;26430;48.818;9.244;2023-11-19T07:54:31;11.60;99.90
2447;DHT22;26430;48.818;9.244;2023-11-19T07:56:56;11.60;99.90
2447;DHT22;26430;48.818;9.244;2023-11-19T07:59:22;11.60;99.90
2447;DHT22;26430;48.818;9.244;2023-11-19T08:01:47;11.60;99.90
2447;DHT22;26430;48.818;9.244;2023-11-19T08:04:13;11.60;99.90
2447;DHT22;26430;48.818;9.244;2023-11-19T08:06:39;11.70;99.90
2447;DHT22;26430;48.818;9.244;2023-11-19T08:09:05;11.70;99.90
2447;DHT22;26430;48.818;9.244;2023-11-19T08:11:31;11.80;99.90
2447;DHT22;26430;48.818;9.244;2023-11-19T08:13:57;11.80;99.90
2447;DHT22;26430;48.818;9.244;2023-11-19T08:16:23;12.00;99.90
2447;DHT22;26430;48.818;9.244;2023-11-19T08:18:48;12.00;99.90
2447;DHT22;26430;48.818;9.244;2023-11-19T08:21:14;12.10;99.90
2447;DHT22;26430;48.818;9.244;2023-11-19T08:23:40;12.20;99.90
2447;DHT22;26430;48.818;9.244;2023-11-19T08:26:06;12.20;99.90
2447;DHT22;26430;48.818;9.244;2023-11-19T08:28:31;12.20;99.90
2447;DHT22;26430;48.818;9.244;2023-11-19T08:30:59;12.20;99.90
2447;DHT22;26430;48.818;9.244;2023-11-19T08:33:26;12.30;99.90
2447;DHT22;26430;48.818;9.244;2023-11-19T08:35:51;12.30;99.90
2447;DHT22;26430;48.818;9.244;2023-11-19T08:38:17;12.30;99.90
2447;DHT22;26430;48.818;9.244;2023-11-19T08:40:42;12.40;99.90
2447;DHT22;26430;48.818;9.244;2023-11-19T08:43:08;12.30;99.90
2447;DHT22;26430;48.818;9.244;2023-11-19T08:45:33;12.40;99.90
2447;DHT22;26430;48.818;9.244;2023-11-19T08:47:59;12.70;99.90
2447;DHT22;26430;48.818;9.244;2023-11-19T08:50:24;12.70;99.90
2447;DHT22;26430;48.818;9.244;2023-11-19T08:52:50;12.70;99.90
2447;DHT22;26430;48.818;9.244;2023-11-19T08:55:15;12.60;99.90
2447;DHT22;26430;48.818;9.244;2023-11-19T08:57:42;12.70;99.90
2447;DHT22;26430;48.818;9.244;2023-11-19T09:00:07;12.60;99.90
2447;DHT22;26430;48.818;9.244;2023-11-19T09:02:34;12.60;99.90
2447;DHT22;26430;48.818;9.244;2023-11-19T09:05:00;12.60;99.90
2447;DHT22;26430;48.818;9.244;2023-11-19T09:07:27;12.60;99.90
2447;DHT22;26430;48.818;9.244;2023-11-19T09:09:52;12.70;99.90
2447;DHT22;26430;48.818;9.244;2023-11-19T09:12:18;12.80;99.90
2447;DHT22;26430;48.818;9.244;2023-11-19T09:14:44;13.10;99.90
2447;DHT22;26430;48.818;9.244;2023-11-19T09:17:11;13.40;99.90
2447;DHT22;26430;48.818;9.244;2023-11-19T09:19:36;13.60;99.90
2447;DHT22;26430;48.818;9.244;2023-11-19T09:22:02;13.80;99.90
2447;DHT22;26430;48.818;9.244;2023-11-19T09:24:28;13.80;99.90
2447;DHT22;26430;48.818;9.244;2023-11-19T09:26:53;13.60;99.90
2447;DHT22;26430;48.818;9.244;2023-11-19T09:29:20;13.40;99.90
2447;DHT22;26430;48.818;9.244;2023-11-19T09:31:46;13.30;99.90
2447;DHT22;26430;48.818;9.244;2023-11-19T09:34:12;13.30;99.90
2447;DHT22;26430;48.818;9.244;2023-11-19T09:36:38;13.20;99.90
2447;DHT22;26430;48.818;9.244;2023-11-19T09:39:04;13.20;99.90
2447;DHT22;26430;48.818;9.244;2023-11-19T09:41:31;13.20;99.90
2447;DHT22;26430;48.818;9.244;2023-11-19T09:43:57;13.20;99.90
2447;DHT22;26430;48.818;9.244;2023-11-19T09:46:23;13.20;99.90
2447;DHT22;26430;48.818;9.244;2023-11-19T09:48:52;13.30;99.90
2447;DHT22;26430;48.818;9.244;2023-11-19T09:51:20;13.40;99.90
2447;DHT22;26430;48.818;9.244;2023-11-19T09:53:45;13.90;99.90
2447;DHT22;26430;48.818;9.244;2023-11-19T09:56:12;14.20;99.90
2447;DHT22;26430;48.818;9.244;2023-11-19T09:58:37;14.30;99.90
2447;DHT22;26430;48.818;9.244;2023-11-19T10:01:03;14.30;99.90
2447;DHT22;26430;48.818;9.244;2023-11-19T10:03:35;14.70;99.90
2447;DHT22;26430;48.818;9.244;2023-11-19T10:06:04;15.10;99.90
2447;DHT22;26430;48.818;9.244;2023-11-19T10:08:32;15.30;99.90
2447;DHT22;26430;48.818;9.244;2023-11-19T10:10:57;15.40;99.90
2447;DHT22;26430;48.818;9.244;2023-11-19T10:13:28;15.00;99.90
2447;DHT22;26430;48.818;9.244;2023-11-19T10:15:55;15.00;99.90
2447;DHT22;26430;48.818;9.244;2023-11-19T10:18:26;15.10;99.90
2447;DHT22;26430;48.818;9.244;2023-11-19T10:20:52;15.30;99.90
2447;DHT22;26430;48.818;9.244;2023-11-19T10:23:18;15.30;99.90
2447;DHT22;26430;48.818;9.244;2023-11-19T10:25:44;15.30;99.90
2447;DHT22;26430;48.818;9.244;2023-11-19T10:28:10;15.20;99.90
2447;DHT22;26430;48.818;9.244;2023-11-19T10:30:35;15.00;99.90
2447;DHT22;26430;48.818;9.244;2023-11-19T10:35:34;14.90;99.90
2447;DHT22;26430;48.818;9.244;2023-11-19T10:38:16;14.80;99.90
2447;DHT22;26430;48.818;9.244;2023-11-19T10:40:42;14.80;99.90
2447;DHT22;26430;48.818;9.244;2023-11-19T10:43:08;14.80;99.90
2447;DHT22;26430;48.818;9.244;2023-11-19T10:45:38;14.60;99.90
2447;DHT22;26430;48.818;9.244;2023-11-19T10:48:04;14.70;99.90
2447;DHT22;26430;48.818;9.244;2023-11-19T10:50:34;14.90;99.90
2447;DHT22;26430;48.818;9.244;2023-11-19T10:53:00;15.40;99.90
2447;DHT22;26430;48.818;9.244;2023-11-19T10:55:30;15.90;99.90
2447;DHT22;26430;48.818;9.244;2023-11-19T10:58:00;16.10;99.90
2447;DHT22;26430;48.818;9.244;2023-11-19T11:03:20;16.10;99.90
2447;DHT22;26430;48.818;9.244;2023-11-19T11:05:50;16.00;99.90
2447;DHT22;26430;48.818;9.244;2023-11-19T11:08:16;16.00;99.90
2447;DHT22;26430;48.818;9.244;2023-11-19T11:11:02;15.80;99.90
2447;DHT22;26430;48.818;9.244;2023-11-19T11:13:29;15.70;99.90
2447;DHT22;26430;48.818;9.244;2023-11-19T11:15:57;15.80;99.90
2447;DHT22;26430;48.818;9.244;2023-11-19T11:18:23;15.80;99.90
2447;DHT22;26430;48.818;9.244;2023-11-19T11:20:53;15.50;99.90
2447;DHT22;26430;48.818;9.244;2023-11-19T11:23:35;15.60;99.90
2447;DHT22;26430;48.818;9.244;2023-11-19T11:26:35;15.60;99.90
2447;DHT22;26430;48.818;9.244;2023-11-19T11:29:26;15.50;99.90
2447;DHT22;26430;48.818;9.244;2023-11-19T11:37:44;15.40;99.90
2447;DHT22;26430;48.818;9.244;2023-11-19T11:40:16;15.40;99.90
2447;DHT22;26430;48.818;9.244;2023-11-19T11:42:43;15.20;99.90
2447;DHT22;26430;48.818;9.244;2023-11-19T11:45:10;15.20;99.90
2447;DHT22;26430;48.818;9.244;2023-11-19T11:50:09;15.60;99.90
2447;DHT22;26430;48.818;9.244;2023-11-19T11:57:54;15.90;99.90
2447;DHT22;26430;48.818;9.244;2023-11-19T12:02:49;15.70;99.90
2447;DHT22;26430;48.818;9.244;2023-11-19T12:05:15;15.60;99.90
2447;DHT22;26430;48.818;9.244;2023-11-19T12:07:41;15.60;99.90
2447;DHT22;26430;48.818;9.244;2023-11-19T12:10:08;15.70;99.90
2447;DHT22;26430;48.818;9.244;2023-11-19T12:12:34;15.60;99.90
2447;DHT22;26430;48.818;9.244;2023-11-19T12:15:08;15.80;99.90
2447;DHT22;26430;48.818;9.244;2023-11-19T12:17:40;15.80;99.90
2447;DHT22;26430;48.818;9.244;2023-11-19T12:20:07;15.80;99.90
2447;DHT22;26430;48.818;9.244;2023-11-19T12:22:41;15.60;99.90
2447;DHT22;26430;48.818;9.244;2023-11-19T12:25:09;15.50;99.90
2447;DHT22;26430;48.818;9.244;2023-11-19T12:27:45;15.40;99.90
2447;DHT22;26430;48.818;9.244;2023-11-19T12:30:11;15.40;99.90
2447;DHT22;26430;48.818;9.244;2023-11-19T12:32:45;15.50;99.90
2447;DHT22;26430;48.818;9.244;2023-11-19T12:35:12;15.60;99.90
2447;DHT22;26430;48.818;9.244;2023-11-19T12:37:41;15.70;99.90
2447;DHT22;26430;48.818;9.244;2023-11-19T12:40:23;15.90;99.90
2447;DHT22;26430;48.818;9.244;2023-11-19T12:42:50;15.90;99.90
2447;DHT22;26430;48.818;9.244;2023-11-19T12:45:16;16.00;99.90
2447;DHT22;26430;48.818;9.244;2023-11-19T12:47:45;16.20;99.90
2447;DHT22;26430;48.818;9.244;2023-11-19T12:50:15;16.20;99.90
2447;DHT22;26430;48.818;9.244;2023-11-19T12:52:42;16.20;99.90
2447;DHT22;26430;48.818;9.244;2023-11-19T12:55:30;16.20;99.90
2447;DHT22;26430;48.818;9.244;2023-11-19T12:57:56;16.20;99.90
2447;DHT22;26430;48.818;9.244;2023-11-19T13:00:23;16.30;99.90
2447;DHT22;26430;48.818;9.244;2023-11-19T13:02:51;16.20;99.90
2447;DHT22;26430;48.818;9.244;2023-11-19T13:05:27;16.10;99.90
2447;DHT22;26430;48.818;9.244;2023-11-19T13:08:05;16.00;99.90
2447;DHT22;26430;48.818;9.244;2023-11-19T13:10:33;16.00;99.90
2447;DHT22;26430;48.818;9.244;2023-11-19T13:13:06;16.00;99.90
2447;DHT22;26430;48.818;9.244;2023-11-19T13:15:34;16.20;99.90
2447;DHT22;26430;48.818;9.244;2023-11-19T13:17:59;16.20;99.90
2447;DHT22;26430;48.818;9.244;2023-11-19T13:20:25;16.20;99.90
2447;DHT22;26430;48.818;9.244;2023-11-19T13:22:58;16.00;99.90
2447;DHT22;26430;48.818;9.244;2023-11-19T13:25:25;16.10;99.90
2447;DHT22;26430;48.818;9.244;2023-11-19T13:27:50;16.00;99.90
2447;DHT22;26430;48.818;9.244;2023-11-19T13:30:16;16.10;99.90
2447;DHT22;26430;48.818;9.244;2023-11-19T13:32:42;16.00;99.90
2447;DHT22;26430;48.818;9.244;2023-11-19T13:35:09;16.00;99.90
2447;DHT22;26430;48.818;9.244;2023-11-19T13:37:35;15.90;99.90
2447;DHT22;26430;48.818;9.244;2023-11-19T13:40:01;15.90;99.90
2447;DHT22;26430;48.818;9.244;2023-11-19T13:42:26;15.80;99.90
2447;DHT22;26430;48.818;9.244;2023-11-19T13:44:52;15.70;99.90
2447;DHT22;26430;48.818;9.244;2023-11-19T13:47:18;15.70;99.90
2447;DHT22;26430;48.818;9.244;2023-11-19T13:49:45;15.60;99.90
2447;DHT22;26430;48.818;9.244;2023-11-19T13:52:10;15.60;99.90
2447;DHT22;26430;48.818;9.244;2023-11-19T13:54:37;15.60;99.90
2447;DHT22;26430;48.818;9.244;2023-11-19T13:57:03;15.60;99.90
2447;DHT22;26430;48.818;9.244;2023-11-19T13:59:30;15.60;99.90
2447;DHT22;26430;48.818;9.244;2023-11-19T14:01:57;15.60;99.90
2447;DHT22;26430;48.818;9.244;2023-11-19T14:04:23;15.60;99.90
2447;DHT22;26430;48.818;9.244;2023-11-19T14:06:48;15.60;99.90
2447;DHT22;26430;48.818;9.244;2023-11-19T14:09:14;15.60;99.90
2447;DHT22;26430;48.818;9.244;2023-11-19T14:11:40;15.50;99.90
2447;DHT22;26430;48.818;9.244;2023-11-19T14:14:06;15.60;99.90
2447;DHT22;26430;48.818;9.244;2023-11-19T14:16:31;15.50;99.90
2447;DHT22;26430;48.818;9.244;2023-11-19T14:18:57;15.40;99.90
2447;DHT22;26430;48.818;9.244;2023-11-19T14:21:23;15.40;99.90
2447;DHT22;26430;48.818;9.244;2023-11-19T14:23:50;15.30;99.90
2447;DHT22;26430;48.818;9.244;2023-11-19T14:26:16;15.30;99.90
2447;DHT22;26430;48.818;9.244;2023-11-19T14:28:41;15.20;99.90
2447;DHT22;26430;48.818;9.244;2023-11-19T14:31:07;15.20;99.90
2447;DHT22;26430;48.818;9.244;2023-11-19T14:33:32;15.10;99.90
2447;DHT22;26430;48.818;9.244;2023-11-19T14:36:00;15.10;99.90
2447;DHT22;26430;48.818;9.244;2023-11-19T14:38:26;15.10;99.90
2447;DHT22;26430;48.818;9.244;2023-11-19T14:40:51;15.00;99.90
2447;DHT22;26430;48.818;9.244;2023-11-19T14:43:17;15.00;99.90
2447;DHT22;26430;48.818;9.244;2023-11-19T14:45:42;15.00;99.90
2447;DHT22;26430;48.818;9.244;2023-11-19T14:48:08;15.00;99.90
2447;DHT22;26430;48.818;9.244;2023-11-19T14:50:35;14.90;99.90
2447;DHT22;26430;48.818;9.244;2023-11-19T14:53:01;14.90;99.90
2447;DHT22;26430;48.818;9.244;2023-11-19T14:55:27;14.90;99.90
2447;DHT22;26430;48.818;9.244;2023-11-19T14:57:53;14.90;99.90
2447;DHT22;26430;48.818;9.244;2023-11-19T15:00:19;14.90;99.90
2447;DHT22;26430;48.818;9.244;2023-11-19T15:02:44;14.80;99.90
2447;DHT22;26430;48.818;9.244;2023-11-19T15:05:10;14.80;99.90
2447;DHT22;26430;48.818;9.244;2023-11-19T15:07:38;14.80;99.90
2447;DHT22;26430;48.818;9.244;2023-11-19T15:10:06;14.70;99.90
2447;DHT22;26430;48.818;9.244;2023-11-19T15:12:37;14.70;99.90
2447;DHT22;26430;48.818;9.244;2023-11-19T15:15:06;14.60;99.90
2447;DHT22;26430;48.818;9.244;2023-11-19T15:17:32;14.60;99.90
2447;DHT22;26430;48.818;9.244;2023-11-19T15:19:57;14.60;99.90
2447;DHT22;26430;48.818;9.244;2023-11-19T15:22:23;14.50;99.90
2447;DHT22;26430;48.818;9.244;2023-11-19T15:24:48;14.50;99.90
2447;DHT22;26430;48.818;9.244;2023-11-19T15:27:14;14.50;99.90
2447;DHT22;26430;48.818;9.244;2023-11-19T15:29:39;14.40;99.90
2447;DHT22;26430;48.818;9.244;2023-11-19T15:32:06;14.30;99.90
2447;DHT22;26430;48.818;9.244;2023-11-19T15:34:34;14.30;99.90
2447;DHT22;26430;48.818;9.244;2023-11-19T15:37:03;14.30;99.90
2447;DHT22;26430;48.818;9.244;2023-11-19T15:39:29;14.20;99.90
2447;DHT22;26430;48.818;9.244;2023-11-19T15:41:54;14.20;99.90
2447;DHT22;26430;48.818;9.244;2023-11-19T15:44:21;14.10;99.90
2447;DHT22;26430;48.818;9.244;2023-11-19T15:46:46;14.00;99.90
2447;DHT22;26430;48.818;9.244;2023-11-19T15:49:12;14.00;99.90
2447;DHT22;26430;48.818;9.244;2023-11-19T15:51:37;14.00;99.90
2447;DHT22;26430;48.818;9.244;2023-11-19T15:54:03;14.00;99.90
2447;DHT22;26430;48.818;9.244;2023-11-19T15:56:30;14.00;99.90
2447;DHT22;26430;48.818;9.244;2023-11-19T15:58:56;13.90;99.90
2447;DHT22;26430;48.818;9.244;2023-11-19T16:01:22;13.90;99.90
2447;DHT22;26430;48.818;9.244;2023-11-19T16:03:47;13.80;99.90
2447;DHT22;26430;48.818;9.244;2023-11-19T16:06:15;13.80;99.90
2447;DHT22;26430;48.818;9.244;2023-11-19T16:08:41;13.80;99.90
2447;DHT22;26430;48.818;9.244;2023-11-19T16:11:06;13.70;99.90